Time;durP1;ratioP1;P1;durP2;ratioP2;P2;SDS_P1;SDS_P2;PMS_P1;PMS_P2;Temp;Humidity;BMP_temperature;BMP_pressure;BME280_temperature;BME280_humidity;BME280_pressure;Samples;Min_cycle;Max_cycle;Signal;HPM_P1;HPM_P2
2024/01/05 00:02:09;;;;;;;5.20;3.70;;;;;;;10.15;56.84;97732.72;6955750;28;20296;-87
2024/01/05 00:09:39;;;;;;;7.10;3.63;;;;;;;10.29;56.03;97711.81;6874470;28;20236;-87
2024/01/05 00:13:01;;;;;;;10.17;4.37;;;;;;;10.22;56.33;97705.72;6879371;28;20252;-88
2024/01/05 00:16:24;;;;;;;8.13;4.10;;;;;;;10.67;55.12;97687.97;6865276;28;20270;-90
2024/01/05 00:19:46;;;;;;;7.63;4.17;;;;;;;10.56;54.58;97668.06;6864568;28;20288;-89
2024/01/05 00:44:53;;;;;;;5.27;3.13;;;;;;;9.59;56.79;97554.59;6674945;29;20197;-89
2024/01/05 00:48:14;;;;;;;5.37;3.17;;;;;;;9.17;56.03;97530.56;6708390;29;20244;-89
2024/01/05 00:51:42;;;;;;;8.33;3.60;;;;;;;10.55;54.68;97663.72;6709112;29;20768;-91
2024/01/05 00:55:07;;;;;;;4.90;3.10;;;;;;;10.39;55.24;97661.69;6712461;29;20267;-91
2024/01/05 00:58:29;;;;;;;11.27;4.47;;;;;;;10.40;55.84;97684.09;6745752;29;20236;-90
2024/01/05 01:01:53;;;;;;;7.70;4.33;;;;;;;9.68;57.02;97611.59;6737623;29;20220;-88
2024/01/05 01:05:15;;;;;;;7.60;3.57;;;;;;;9.86;56.73;97668.88;6928521;28;20702;-90
2024/01/05 01:12:53;;;;;;;8.87;3.73;;;;;;;9.82;56.34;97631.91;6956148;28;20227;-88
2024/01/05 01:16:43;;;;;;;10.90;4.30;;;;;;;10.66;55.72;97679.09;6965213;28;20214;-89
2024/01/05 01:28:55;;;;;;;8.17;5.00;;;;;;;10.06;56.30;97687.50;6816486;29;20237;-88
2024/01/05 01:36:19;;;;;;;7.90;4.10;;;;;;;9.34;59.11;97682.19;6891616;28;20227;-89
2024/01/05 01:39:45;;;;;;;7.60;4.37;;;;;;;9.88;56.84;97682.13;6955298;28;20224;-89
2024/01/05 01:43:21;;;;;;;6.87;3.73;;;;;;;8.87;59.66;97594.22;6956220;28;20220;-89
2024/01/05 01:46:51;;;;;;;7.47;3.97;;;;;;;9.95;57.81;97643.28;6955795;28;20222;-92
2024/01/05 01:50:13;;;;;;;8.23;3.87;;;;;;;9.58;57.46;97638.22;6945610;28;20264;-89
2024/01/05 01:53:35;;;;;;;6.83;3.30;;;;;;;9.08;57.84;97538.13;6943026;28;20304;-89
2024/01/05 01:56:58;;;;;;;7.00;2.97;;;;;;;9.10;59.06;97602.44;6952875;28;20225;-89
2024/01/05 02:00:23;;;;;;;5.90;3.37;;;;;;;9.73;57.75;97588.31;6954148;28;20231;-89
2024/01/05 02:03:45;;;;;;;3.93;2.80;;;;;;;10.06;56.50;97548.31;6953043;28;20241;-89
2024/01/05 02:07:07;;;;;;;4.93;2.97;;;;;;;10.40;55.67;97598.66;6951407;28;20333;-89
2024/01/05 02:10:29;;;;;;;4.20;3.33;;;;;;;10.76;55.05;97582.28;6947915;28;20249;-89
2024/01/05 02:13:52;;;;;;;4.57;3.13;;;;;;;10.74;54.58;97564.72;6950150;28;20688;-89
2024/01/05 02:17:30;;;;;;;5.53;3.30;;;;;;;10.44;54.97;97545.13;6951019;28;20291;-88
2024/01/05 02:20:51;;;;;;;7.67;4.00;;;;;;;10.43;54.75;97527.34;6944121;28;20224;-89
2024/01/05 02:24:14;;;;;;;4.20;3.00;;;;;;;10.65;54.32;97563.41;6930436;28;20301;-90
2024/01/05 02:27:36;;;;;;;5.83;3.00;;;;;;;10.25;55.00;97575.94;6939516;28;20207;-88
2024/01/05 02:31:31;;;;;;;4.67;3.10;;;;;;;10.53;55.45;97581.47;6942588;28;20227;-89
2024/01/05 02:34:53;;;;;;;6.53;2.63;;;;;;;10.59;55.32;97575.13;6906750;28;20203;-89
2024/01/05 02:38:15;;;;;;;5.07;2.87;;;;;;;10.67;55.14;97572.09;6933574;28;20292;-88
2024/01/05 02:41:47;;;;;;;2.97;2.50;;;;;;;9.85;56.79;97534.50;6947084;28;20214;-86
2024/01/05 02:45:10;;;;;;;4.77;2.80;;;;;;;9.88;57.73;97561.81;6947565;28;20203;-88
2024/01/05 02:48:37;;;;;;;4.93;2.53;;;;;;;9.60;57.69;97512.34;6944634;28;20242;-88
2024/01/05 02:52:06;;;;;;;7.20;2.83;;;;;;;10.50;56.32;97542.34;6935720;28;20199;-88
2024/01/05 02:55:46;;;;;;;5.07;2.53;;;;;;;10.71;55.76;97567.88;6947962;28;20213;-89
2024/01/05 02:59:37;;;;;;;6.63;3.03;;;;;;;9.92;57.66;97560.28;6952677;28;20218;-88
2024/01/05 03:03:04;;;;;;;5.47;2.97;;;;;;;9.76;58.10;97563.66;6958219;28;20656;-88
2024/01/05 03:10:15;;;;;;;3.83;2.30;;;;;;;10.75;55.39;97550.97;6856757;28;20786;-88
2024/01/05 03:13:37;;;;;;;4.70;2.40;;;;;;;9.96;55.10;97447.56;6921228;28;20218;-88
2024/01/05 03:20:57;;;;;;;4.13;2.30;;;;;;;10.43;56.17;97544.34;6901326;28;20279;-88
2024/01/05 03:24:30;;;;;;;3.53;2.50;;;;;;;10.12;57.42;97546.53;6908952;28;20209;-90
2024/01/05 03:28:15;;;;;;;4.23;2.60;;;;;;;9.73;58.20;97537.19;6962931;28;20218;-89
2024/01/05 03:43:44;;;;;;;9.07;2.73;;;;;;;9.96;58.03;97515.72;6944241;28;20207;-88
2024/01/05 03:47:06;;;;;;;5.13;2.70;;;;;;;9.88;58.15;97507.16;6964908;28;20214;-88
2024/01/05 03:50:38;;;;;;;8.27;3.03;;;;;;;10.17;57.46;97501.69;6950828;28;20228;-88
2024/01/05 03:53:59;;;;;;;6.67;2.90;;;;;;;10.26;57.13;97508.38;6958118;28;20214;-91
2024/01/05 03:57:21;;;;;;;4.53;2.60;;;;;;;9.99;56.71;97495.56;6957730;28;20200;-90
2024/01/05 04:04:25;;;;;;;6.80;2.80;;;;;;;9.49;57.85;97456.63;6961039;28;20265;-89
2024/01/05 04:07:53;;;;;;;3.60;2.50;;;;;;;9.54;57.85;97495.28;6964598;28;20195;-90
2024/01/05 04:11:33;;;;;;;17.70;3.23;;;;;;;9.36;58.18;97449.63;6948052;28;20778;-88
2024/01/05 04:15:04;;;;;;;3.93;2.60;;;;;;;10.18;57.72;97510.59;6965701;28;20270;-88
2024/01/05 04:18:26;;;;;;;6.27;2.83;;;;;;;9.53;57.35;97429.06;6942129;28;20223;-88
2024/01/05 04:21:48;;;;;;;7.03;3.07;;;;;;;10.08;57.22;97486.94;6950300;28;20291;-88
2024/01/05 04:25:10;;;;;;;3.70;2.33;;;;;;;9.66;57.02;97449.53;6947072;28;20729;-89
2024/01/05 04:28:32;;;;;;;3.50;2.83;;;;;;;9.33;58.20;97489.59;6952111;28;20256;-89
2024/01/05 04:31:54;;;;;;;5.03;2.97;;;;;;;9.12;58.44;97398.69;6960156;28;20272;-89
2024/01/05 04:35:15;;;;;;;3.90;2.57;;;;;;;9.19;58.63;97461.25;6962831;28;20230;-88
2024/01/05 04:38:37;;;;;;;6.00;3.43;;;;;;;9.08;59.15;97425.22;6955637;28;20247;-88
2024/01/05 04:42:00;;;;;;;4.60;2.83;;;;;;;9.44;59.14;97470.78;6963977;28;20216;-89
2024/01/05 04:45:22;;;;;;;4.70;2.97;;;;;;;8.98;58.83;97422.25;6954752;28;20234;-89
2024/01/05 04:48:43;;;;;;;3.97;3.00;;;;;;;9.72;58.73;97470.97;6934078;28;20222;-88
2024/01/05 04:52:06;;;;;;;6.47;2.90;;;;;;;10.09;57.41;97468.94;6945410;28;20261;-89
2024/01/05 04:55:27;;;;;;;4.03;2.93;;;;;;;9.56;57.40;97463.56;6949396;28;20230;-88
2024/01/05 04:58:50;;;;;;;3.50;2.67;;;;;;;9.76;57.99;97463.25;6946989;28;20249;-89
2024/01/05 05:02:11;;;;;;;3.83;2.53;;;;;;;9.62;57.79;97457.25;6955570;28;20259;-89
2024/01/05 05:05:33;;;;;;;5.70;3.00;;;;;;;9.07;58.92;97449.63;6951745;28;20205;-89
2024/01/05 05:08:55;;;;;;;6.53;3.20;;;;;;;8.38;60.67;97341.06;6937012;28;20700;-91
2024/01/05 05:12:17;;;;;;;4.93;2.50;;;;;;;9.85;57.92;97453.75;6961449;28;20837;-89
2024/01/05 05:15:40;;;;;;;3.87;2.77;;;;;;;9.74;57.16;97468.06;6938142;28;20210;-89
2024/01/05 05:19:01;;;;;;;4.07;2.60;;;;;;;9.50;57.02;97375.72;6932900;28;20227;-88
2024/01/05 05:22:23;;;;;;;3.00;2.70;;;;;;;9.92;57.66;97449.91;6951237;28;20218;-88
2024/01/05 05:25:45;;;;;;;6.00;2.90;;;;;;;9.42;57.41;97454.06;6950863;28;20685;-89
2024/01/05 05:29:06;;;;;;;3.23;2.80;;;;;;;9.80;56.79;97467.13;6961346;28;20273;-88
2024/01/05 05:32:29;;;;;;;2.70;2.50;;;;;;;9.86;56.45;97456.22;6961475;28;20241;-88
2024/01/05 05:35:50;;;;;;;6.83;3.27;;;;;;;9.87;56.66;97473.22;6962807;28;20249;-89
2024/01/05 05:39:12;;;;;;;4.57;2.60;;;;;;;9.48;56.61;97395.81;6956711;28;20314;-89
2024/01/05 05:43:19;;;;;;;8.37;2.77;;;;;;;9.72;56.61;97446.75;6954264;28;20218;-88
2024/01/05 05:46:41;;;;;;;3.80;2.87;;;;;;;9.61;57.24;97452.09;6940225;28;20252;-89
2024/01/05 05:50:06;;;;;;;4.77;2.60;;;;;;;9.83;56.36;97410.13;6961419;28;20234;-90
2024/01/05 05:53:27;;;;;;;3.30;2.67;;;;;;;10.13;55.47;97459.31;6959359;28;20211;-89
2024/01/05 05:56:49;;;;;;;5.40;2.70;;;;;;;10.26;55.09;97453.69;6957446;28;20231;-88
2024/01/05 06:00:11;;;;;;;3.30;2.50;;;;;;;10.40;53.48;97426.25;6950131;28;20269;-88
2024/01/05 06:03:41;;;;;;;5.13;2.97;;;;;;;10.14;53.99;97439.41;6956727;28;20207;-88
2024/01/05 06:18:55;;;;;;;3.47;2.90;;;;;;;10.24;53.29;97451.25;6926806;28;20239;-88
2024/01/05 06:22:18;;;;;;;6.17;3.63;;;;;;;10.40;53.30;97445.09;6949259;28;20211;-89
2024/01/05 06:25:40;;;;;;;4.20;3.40;;;;;;;10.64;53.17;97456.66;6965148;28;20214;-88
2024/01/05 06:29:02;;;;;;;6.67;3.97;;;;;;;9.85;53.67;97391.84;6947856;28;20224;-89
2024/01/05 06:32:24;;;;;;;4.87;3.27;;;;;;;9.86;55.41;97468.88;6954708;28;20214;-88
2024/01/05 06:36:01;;;;;;;4.53;3.17;;;;;;;10.39;53.90;97461.53;6955953;28;20292;-88
2024/01/05 07:13:39;;;;;;;5.97;3.47;;;;;;;9.47;56.71;97473.03;6819635;29;20205;-86
2024/01/05 07:21:20;;;;;;;10.40;4.90;;;;;;;9.40;57.40;97474.97;6772927;29;20214;-88
2024/01/05 07:24:41;;;;;;;11.23;4.57;;;;;;;10.11;55.42;97481.09;6822174;29;20288;-87
2024/01/05 07:28:03;;;;;;;6.10;4.73;;;;;;;9.96;56.94;97496.03;6884053;28;20229;-87
2024/01/05 07:31:35;;;;;;;10.53;6.47;;;;;;;9.33;57.52;97476.16;6949583;28;20612;-90
2024/01/05 07:34:57;;;;;;;6.17;5.20;;;;;;;9.87;56.57;97446.28;6927449;28;20202;-86
2024/01/05 07:38:18;;;;;;;7.30;5.57;;;;;;;9.67;55.89;97410.81;6921165;28;20234;-87
2024/01/05 07:41:48;;;;;;;18.47;7.57;;;;;;;9.56;55.76;97373.97;6938528;28;20207;-86
2024/01/05 07:45:10;;;;;;;7.93;5.60;;;;;;;9.40;57.48;97472.28;6925658;28;20350;-84
2024/01/05 07:48:34;;;;;;;7.27;5.30;;;;;;;9.65;56.63;97410.22;6938723;28;20763;-88
2024/01/05 07:52:02;;;;;;;6.80;5.37;;;;;;;9.57;57.26;97446.38;6945059;28;20230;-88
2024/01/05 07:55:24;;;;;;;7.00;4.97;;;;;;;9.93;56.97;97475.78;6949741;28;20343;-86
2024/01/05 07:58:45;;;;;;;4.70;4.20;;;;;;;9.84;57.84;97473.66;6940656;28;20231;-87
2024/01/05 08:02:07;;;;;;;7.37;4.93;;;;;;;8.82;58.47;97384.44;6938506;28;20231;-87
2024/01/05 08:05:30;;;;;;;6.33;4.93;;;;;;;9.88;56.55;97434.47;6937515;28;20578;-87
2024/01/05 08:08:52;;;;;;;7.67;5.23;;;;;;;10.25;56.30;97470.91;6931567;28;20389;-88
2024/01/05 08:12:16;;;;;;;8.57;6.03;;;;;;;10.58;55.74;97481.88;6940803;28;20831;-87
2024/01/05 08:15:37;;;;;;;6.97;5.30;;;;;;;10.12;56.93;97471.97;6944111;28;20275;-88
2024/01/05 08:19:00;;;;;;;6.50;4.77;;;;;;;10.30;56.18;97473.72;6941994;28;20231;-87
2024/01/05 08:22:25;;;;;;;8.43;5.27;;;;;;;9.68;57.79;97475.16;6952475;28;20199;-87
2024/01/05 08:25:47;;;;;;;9.10;4.87;;;;;;;10.25;56.41;97463.66;6956404;28;20205;-88
2024/01/05 08:29:09;;;;;;;7.73;5.40;;;;;;;10.26;56.79;97461.75;6947049;28;20223;-90
2024/01/05 08:32:37;;;;;;;8.07;5.43;;;;;;;10.11;56.97;97470.31;6945655;28;20226;-89
2024/01/05 08:35:59;;;;;;;6.27;4.80;;;;;;;10.44;56.04;97440.91;6947840;28;20213;-86
2024/01/05 08:39:22;;;;;;;5.33;4.60;;;;;;;10.30;55.25;97395.59;6931518;28;20877;-86
2024/01/05 08:42:56;;;;;;;9.97;5.13;;;;;;;9.95;56.37;97389.41;6935300;28;20207;-88
2024/01/05 08:46:21;;;;;;;5.30;4.57;;;;;;;10.29;57.86;97464.00;6938867;28;20206;-86
2024/01/05 08:49:42;;;;;;;11.10;4.70;;;;;;;10.15;56.66;97374.53;6956419;28;20238;-90
2024/01/05 08:53:05;;;;;;;5.47;4.73;;;;;;;10.49;56.31;97410.53;6958252;28;20222;-87
2024/01/05 08:56:56;;;;;;;5.60;5.00;;;;;;;10.04;57.67;97463.44;6956768;28;20588;-85
2024/01/05 09:00:19;;;;;;;6.87;5.00;;;;;;;11.09;55.67;97455.69;6931468;28;20230;-86
2024/01/05 09:08:03;;;;;;;8.93;5.00;;;;;;;11.13;55.14;97434.47;6938194;28;20257;-79
2024/01/05 09:11:25;;;;;;;8.20;4.60;;;;;;;11.43;54.13;97443.94;6938321;28;20242;-79
2024/01/05 09:14:48;;;;;;;8.27;5.90;;;;;;;11.66;54.11;97472.69;6949156;28;20213;-79
2024/01/05 09:18:09;;;;;;;7.60;5.57;;;;;;;11.09;54.94;97473.78;6944553;28;20250;-80
2024/01/05 09:21:31;;;;;;;17.20;9.83;;;;;;;11.58;54.54;97476.59;6947886;28;20258;-80
2024/01/05 09:24:52;;;;;;;13.07;8.07;;;;;;;11.67;54.41;97477.00;6943700;28;20764;-79
2024/01/05 09:28:14;;;;;;;19.93;8.13;;;;;;;10.99;55.87;97474.38;6944317;28;20269;-79
2024/01/05 09:31:37;;;;;;;14.17;9.57;;;;;;;11.63;54.50;97481.28;6946101;28;20602;-79
2024/01/05 09:34:58;;;;;;;18.83;10.93;;;;;;;11.67;54.12;97485.94;6945209;28;20293;-79
2024/01/05 09:38:20;;;;;;;25.90;15.23;;;;;;;11.40;54.89;97460.59;6945052;28;20268;-79
2024/01/05 09:41:42;;;;;;;22.00;14.60;;;;;;;11.92;54.22;97499.88;6927731;28;20673;-79
2024/01/05 09:45:06;;;;;;;16.97;10.77;;;;;;;11.83;54.30;97482.44;6916678;28;20711;-78
2024/01/05 09:48:29;;;;;;;11.53;6.60;;;;;;;11.02;56.56;97500.88;6915552;28;20265;-78
2024/01/05 10:38:36;;;;;;;18.27;10.97;;;;;;;12.83;54.65;97488.50;7037844;27;20318;-88
2024/01/05 10:46:14;;;;;;;20.50;10.53;;;;;;;13.47;53.40;97466.84;6975395;28;20238;-86
2024/01/05 10:49:35;;;;;;;23.47;14.77;;;;;;;14.00;52.59;97472.22;7042451;28;20209;-84
2024/01/05 10:52:57;;;;;;;18.27;12.77;;;;;;;13.68;52.59;97467.88;6994746;28;1246661;-86
2024/01/05 10:56:19;;;;;;;14.73;8.57;;;;;;;13.57;53.35;97474.25;6968906;28;20221;-86
2024/01/05 10:59:44;;;;;;;10.20;7.17;;;;;;;13.95;52.78;97458.63;6969920;28;20199;-83
2024/01/05 11:03:10;;;;;;;11.73;6.60;;;;;;;13.83;51.21;97457.16;6970528;28;20638;-85
2024/01/05 11:06:33;;;;;;;13.00;7.07;;;;;;;14.24;51.13;97456.41;6967372;28;20241;-82
2024/01/05 11:09:59;;;;;;;12.30;6.13;;;;;;;14.25;51.31;97447.19;6967259;28;20285;-82
2024/01/05 11:13:34;;;;;;;7.97;5.97;;;;;;;14.57;49.38;97469.66;6966551;28;20204;-85
2024/01/05 11:17:27;;;;;;;12.87;6.17;;;;;;;14.17;48.89;97463.94;6937109;28;20300;-85
2024/01/05 11:21:06;;;;;;;12.43;6.40;;;;;;;13.91;50.36;97443.94;6937957;28;20282;-85
2024/01/05 11:24:28;;;;;;;6.30;5.17;;;;;;;14.13;49.67;97441.94;6938136;28;20207;-85
2024/01/05 11:27:49;;;;;;;10.93;5.87;;;;;;;14.20;49.79;97439.03;6936612;28;20327;-83
2024/01/05 11:31:11;;;;;;;8.23;5.20;;;;;;;13.59;49.32;97358.38;6946694;28;20237;-86
2024/01/05 12:30:34;;;;;;;10.60;6.90;;;;;;;14.38;50.43;97431.28;6882503;28;20216;-84
2024/01/05 12:37:52;;;;;;;13.87;8.03;;;;;;;14.54;50.38;97372.53;6942204;28;20248;-82
2024/01/05 12:42:00;;;;;;;15.07;7.03;;;;;;;14.78;49.30;97419.81;6946262;28;20206;-85
2024/01/05 12:58:11;;;;;;;7.13;4.97;;;;;;;14.54;47.64;97300.13;6966619;28;20230;-83
2024/01/05 13:01:32;;;;;;;8.00;4.93;;;;;;;15.01;48.17;97368.63;6981769;28;20203;-83
2024/01/05 13:04:54;;;;;;;6.40;4.53;;;;;;;15.41;47.70;97359.78;6972345;28;20324;-83
2024/01/05 13:08:15;;;;;;;5.83;3.50;;;;;;;15.33;47.13;97347.53;6969233;28;20292;-83
2024/01/05 13:11:37;;;;;;;6.17;3.50;;;;;;;15.70;45.82;97344.56;6972989;28;20539;-83
2024/01/05 13:15:01;;;;;;;4.60;3.30;;;;;;;15.63;46.34;97361.13;6944803;28;20204;-83
2024/01/05 13:21:58;;;;;;;3.67;3.10;;;;;;;15.62;46.40;97345.13;6941195;28;20212;-83
2024/01/05 13:25:19;;;;;;;6.17;3.07;;;;;;;15.73;45.70;97344.84;6973874;28;20231;-82
2024/01/05 13:28:41;;;;;;;5.50;3.13;;;;;;;15.82;45.59;97364.13;6976479;28;20699;-82
2024/01/05 13:32:04;;;;;;;6.07;2.70;;;;;;;15.69;45.91;97368.19;6982128;28;20214;-83
2024/01/05 13:35:26;;;;;;;6.13;2.70;;;;;;;15.56;46.23;97366.03;6978065;28;20655;-82
2024/01/05 13:38:48;;;;;;;5.60;3.00;;;;;;;15.71;46.30;97373.34;6982301;28;20231;-82
2024/01/05 13:42:11;;;;;;;4.23;2.90;;;;;;;15.59;45.89;97376.34;6973613;28;20207;-82
2024/01/05 13:45:32;;;;;;;4.10;2.47;;;;;;;15.57;46.22;97381.22;6989529;28;20237;-82
2024/01/05 13:48:55;;;;;;;2.73;2.50;;;;;;;15.52;46.28;97383.13;6972673;28;20234;-82
2024/01/05 13:52:17;;;;;;;3.87;2.63;;;;;;;15.42;46.39;97381.22;6978211;28;20231;-82
2024/01/05 13:55:39;;;;;;;5.03;2.87;;;;;;;15.36;46.76;97393.19;6977890;28;20228;-83
2024/01/05 13:59:00;;;;;;;3.57;2.37;;;;;;;15.43;46.48;97406.47;6980005;28;20867;-82
2024/01/05 14:02:22;;;;;;;4.63;2.50;;;;;;;15.44;46.78;97392.63;6983109;28;20211;-84
2024/01/05 14:05:45;;;;;;;3.23;2.90;;;;;;;15.43;47.20;97404.59;6980522;28;20250;-80
2024/01/05 14:09:06;;;;;;;7.37;3.13;;;;;;;15.36;47.47;97400.50;6963450;28;20283;-82
2024/01/05 14:12:28;;;;;;;7.10;3.20;;;;;;;15.46;47.45;97395.88;6980149;28;20205;-83
2024/01/05 14:15:49;;;;;;;5.50;3.13;;;;;;;15.27;47.36;97410.25;6982348;28;20230;-84
2024/01/05 14:19:11;;;;;;;5.00;3.00;;;;;;;15.26;47.47;97403.97;6977110;28;20234;-79
2024/01/05 14:22:34;;;;;;;3.80;3.27;;;;;;;15.38;47.47;97414.59;6958299;28;20527;-81
2024/01/05 14:25:57;;;;;;;6.17;3.30;;;;;;;15.33;47.51;97406.47;6971721;28;20228;-85
2024/01/05 14:29:18;;;;;;;5.73;3.10;;;;;;;15.03;47.66;97409.06;6965508;28;20208;-81
2024/01/05 14:32:40;;;;;;;4.13;3.73;;;;;;;15.14;47.70;97427.84;6970895;28;20213;-82
2024/01/05 14:36:04;;;;;;;6.80;4.70;;;;;;;15.17;47.95;97435.44;6977118;28;20256;-82
2024/01/05 14:39:28;;;;;;;7.37;5.33;;;;;;;15.08;48.05;97434.34;6968320;28;20200;-82
2024/01/05 14:42:49;;;;;;;6.93;4.07;;;;;;;15.25;47.74;97437.66;6976606;28;20199;-81
2024/01/05 14:46:11;;;;;;;5.47;3.70;;;;;;;15.04;47.57;97440.56;6967290;28;20227;-81
2024/01/05 14:49:33;;;;;;;5.90;4.00;;;;;;;14.79;48.17;97441.28;6968782;28;20238;-84
2024/01/05 14:52:54;;;;;;;7.13;3.73;;;;;;;14.92;47.93;97437.28;6989616;28;20204;-80
2024/01/05 14:56:17;;;;;;;6.10;4.23;;;;;;;14.77;48.21;97413.59;6987673;28;20248;-79
2024/01/05 14:59:38;;;;;;;9.20;4.53;;;;;;;14.74;48.27;97435.03;6974794;28;20217;-80
2024/01/05 15:03:03;;;;;;;6.77;4.50;;;;;;;14.65;48.39;97431.16;6971736;28;20202;-80
2024/01/05 15:06:26;;;;;;;5.87;4.53;;;;;;;14.61;48.53;97439.03;6973675;28;20596;-81
2024/01/05 15:09:47;;;;;;;7.13;4.90;;;;;;;14.61;48.49;97424.63;6974047;28;20255;-80
2024/01/05 15:13:10;;;;;;;6.10;4.80;;;;;;;14.52;48.68;97428.94;6981379;28;20199;-81
2024/01/05 15:16:38;;;;;;;8.47;4.53;;;;;;;14.36;49.28;97435.34;6979899;28;20663;-80
2024/01/05 15:20:00;;;;;;;6.53;4.13;;;;;;;14.49;48.77;97430.28;6975313;28;20217;-81
2024/01/05 15:23:22;;;;;;;6.77;4.50;;;;;;;14.46;49.03;97438.94;6963689;28;20202;-80
2024/01/05 15:26:44;;;;;;;7.27;4.30;;;;;;;14.31;49.23;97421.75;6983907;28;20372;-82
2024/01/05 15:30:08;;;;;;;6.23;4.33;;;;;;;14.26;49.05;97411.72;6985125;28;20223;-82
2024/01/05 15:33:29;;;;;;;6.97;4.40;;;;;;;14.34;49.31;97432.09;6975244;28;20749;-80
2024/01/05 15:36:51;;;;;;;9.00;5.17;;;;;;;14.14;49.48;97430.03;6971879;28;20233;-79
2024/01/05 15:40:14;;;;;;;7.97;5.03;;;;;;;14.09;49.91;97423.78;6971120;28;20234;-81
2024/01/05 15:43:37;;;;;;;25.77;17.57;;;;;;;13.12;52.52;97425.88;6980988;28;20640;-80
2024/01/05 15:46:59;;;;;;;13.67;7.57;;;;;;;12.98;53.42;97431.94;6991899;28;20230;-81
2024/01/05 15:50:21;;;;;;;15.20;10.63;;;;;;;13.08;53.30;97423.91;6988579;28;20206;-81
2024/01/05 15:53:43;;;;;;;7.43;4.73;;;;;;;13.26;52.76;97416.28;6987383;28;20230;-81
2024/01/05 15:57:05;;;;;;;8.90;6.63;;;;;;;13.29;52.52;97417.66;6990717;28;20337;-81
2024/01/05 16:00:27;;;;;;;7.77;5.73;;;;;;;13.24;52.82;97418.44;6980990;28;20213;-80
2024/01/05 16:03:49;;;;;;;8.10;6.03;;;;;;;13.53;52.66;97417.09;6973534;28;20571;-81
2024/01/05 16:07:11;;;;;;;11.23;7.87;;;;;;;13.55;52.32;97433.06;6975140;28;20637;-80
2024/01/05 16:10:32;;;;;;;10.77;8.00;;;;;;;13.71;51.99;97434.84;6975765;28;20691;-80
2024/01/05 16:13:54;;;;;;;20.57;12.80;;;;;;;12.82;53.82;97424.69;6976300;28;20248;-81
2024/01/05 16:17:15;;;;;;;16.20;10.37;;;;;;;13.58;52.47;97438.78;6976112;28;20311;-80
2024/01/05 16:20:43;;;;;;;12.30;8.50;;;;;;;13.73;51.65;97435.38;6971157;28;20230;-79
2024/01/05 16:24:06;;;;;;;11.73;8.00;;;;;;;13.68;51.29;97440.78;6959819;28;20206;-79
2024/01/05 16:27:27;;;;;;;16.13;9.03;;;;;;;12.96;53.50;97447.59;6973563;28;20245;-80
2024/01/05 16:30:49;;;;;;;41.17;24.90;;;;;;;13.13;53.25;97435.63;6981295;28;20687;-80
2024/01/05 16:34:10;;;;;;;13.07;7.93;;;;;;;13.09;52.85;97437.19;6969372;28;20224;-79
2024/01/05 16:37:33;;;;;;;12.87;8.07;;;;;;;13.32;52.87;97442.31;6967727;28;20268;-80
2024/01/05 16:40:55;;;;;;;12.10;7.03;;;;;;;13.05;52.99;97432.56;6973881;28;20213;-79
2024/01/05 16:44:17;;;;;;;10.50;6.87;;;;;;;13.24;53.09;97434.66;6975498;28;20689;-79
2024/01/05 16:47:41;;;;;;;9.80;6.90;;;;;;;12.93;53.40;97421.81;6986085;28;20406;-81
2024/01/05 16:51:03;;;;;;;11.67;7.83;;;;;;;13.16;52.94;97429.69;6959922;28;20210;-79
2024/01/05 16:54:26;;;;;;;9.30;6.60;;;;;;;13.24;53.08;97437.38;6948057;28;20306;-78
2024/01/05 16:57:53;;;;;;;12.70;7.77;;;;;;;13.18;52.72;97434.84;6961627;28;20308;-79
2024/01/05 17:01:15;;;;;;;9.83;7.03;;;;;;;13.04;53.32;97436.34;6956647;28;20207;-80
2024/01/05 17:04:37;;;;;;;12.40;8.07;;;;;;;12.70;53.30;97427.50;6963593;28;20209;-80
2024/01/05 17:07:58;;;;;;;12.00;8.20;;;;;;;12.44;54.45;97449.03;6971415;28;20321;-80
2024/01/05 17:11:25;;;;;;;15.87;6.93;;;;;;;11.54;56.95;97444.91;6965673;28;20238;-78
2024/01/05 17:14:46;;;;;;;14.07;7.10;;;;;;;11.68;56.40;97425.47;6954345;28;20293;-78
2024/01/05 17:18:08;;;;;;;8.70;7.07;;;;;;;11.91;56.20;97446.09;6963210;28;20231;-81
2024/01/05 17:21:29;;;;;;;11.63;8.00;;;;;;;12.15;56.08;97447.56;6964595;28;20293;-79
2024/01/05 17:24:51;;;;;;;13.53;8.10;;;;;;;12.23;56.04;97452.53;6968832;28;20246;-81
2024/01/05 17:28:14;;;;;;;11.10;7.43;;;;;;;12.05;55.35;97452.81;6964027;28;20231;-81
2024/01/05 17:31:35;;;;;;;10.73;7.63;;;;;;;12.18;55.76;97455.16;6966522;28;20330;-81
2024/01/05 17:34:57;;;;;;;12.00;7.13;;;;;;;12.28;55.11;97455.31;6968045;28;20227;-81
2024/01/05 17:38:18;;;;;;;13.20;8.20;;;;;;;12.11;55.20;97457.22;6968548;28;20222;-82
2024/01/05 17:41:42;;;;;;;9.53;7.13;;;;;;;11.93;55.50;97466.38;6971009;28;20658;-82
2024/01/05 17:45:06;;;;;;;8.53;7.20;;;;;;;11.60;56.72;97452.91;6977962;28;20211;-82
2024/01/05 17:48:28;;;;;;;11.63;8.20;;;;;;;11.66;57.18;97467.28;6977937;28;20253;-82
2024/01/05 17:51:50;;;;;;;14.37;8.10;;;;;;;12.02;56.79;97474.91;6978185;28;20300;-82
2024/01/05 17:55:11;;;;;;;12.80;8.30;;;;;;;11.52;57.30;97474.03;6979578;28;20221;-82
2024/01/05 17:58:33;;;;;;;18.27;10.87;;;;;;;11.57;57.36;97483.03;6975940;28;20312;-80
2024/01/05 18:01:59;;;;;;;13.03;10.70;;;;;;;11.65;57.48;97479.97;6955984;28;20207;-81
2024/01/05 18:05:20;;;;;;;14.10;10.47;;;;;;;12.04;56.78;97487.09;6947854;28;20280;-82
2024/01/05 18:08:42;;;;;;;14.27;10.00;;;;;;;12.01;56.89;97490.31;6998687;28;20354;-82
2024/01/05 18:12:04;;;;;;;14.37;10.20;;;;;;;12.21;56.51;97482.50;7003168;28;20351;-82
2024/01/05 18:15:26;;;;;;;11.40;8.03;;;;;;;11.84;56.60;97473.28;7000789;28;20209;-82
2024/01/05 18:18:49;;;;;;;14.67;8.27;;;;;;;12.19;56.49;97481.94;6972878;28;20225;-82
2024/01/05 18:22:10;;;;;;;12.97;11.43;;;;;;;12.21;56.10;97498.72;6975222;28;20733;-82
2024/01/05 18:25:33;;;;;;;9.43;7.43;;;;;;;12.22;56.12;97488.75;6971876;28;20248;-82
2024/01/05 18:28:55;;;;;;;12.77;9.00;;;;;;;12.39;55.86;97481.44;6962568;28;20248;-83
2024/01/05 18:32:16;;;;;;;9.30;7.17;;;;;;;12.33;55.30;97471.63;6943977;28;20297;-82
2024/01/05 18:35:39;;;;;;;9.33;7.17;;;;;;;12.35;55.62;97481.13;6944123;28;20226;-81
2024/01/05 18:39:01;;;;;;;11.27;7.90;;;;;;;12.60;54.82;97480.63;6950470;28;20208;-82
2024/01/05 18:42:23;;;;;;;11.30;8.63;;;;;;;12.29;55.20;97473.16;6965986;28;20213;-83
2024/01/05 18:45:45;;;;;;;18.30;8.70;;;;;;;11.71;57.12;97464.69;6955749;28;20581;-82
2024/01/05 18:49:07;;;;;;;11.33;8.97;;;;;;;11.94;57.13;97478.84;6967812;28;20286;-85
2024/01/05 18:52:30;;;;;;;11.13;8.33;;;;;;;12.58;56.42;97471.97;6978307;28;20670;-83
2024/01/05 18:55:52;;;;;;;12.60;9.13;;;;;;;12.56;55.64;97483.03;6969041;28;20207;-81
2024/01/05 18:59:13;;;;;;;14.60;8.87;;;;;;;12.71;55.09;97472.41;6972142;28;20203;-85
2024/01/05 19:02:35;;;;;;;10.10;7.70;;;;;;;12.16;55.80;97487.03;6975277;28;20740;-83
2024/01/05 19:05:56;;;;;;;11.90;7.60;;;;;;;12.14;56.16;97473.75;6954712;28;20233;-83
2024/01/05 19:09:22;;;;;;;8.47;6.93;;;;;;;12.27;55.79;97476.09;6974493;28;20226;-82
2024/01/05 19:12:43;;;;;;;8.13;7.23;;;;;;;12.43;55.95;97494.19;6976855;28;20224;-83
2024/01/05 19:16:07;;;;;;;13.47;7.30;;;;;;;12.56;55.56;97506.56;6979272;28;20280;-82
2024/01/05 19:19:28;;;;;;;14.63;11.80;;;;;;;12.55;55.61;97507.59;6979571;28;20203;-81
2024/01/05 19:22:50;;;;;;;9.63;6.70;;;;;;;12.45;55.00;97510.16;6981248;28;20568;-82
2024/01/05 19:26:18;;;;;;;10.90;7.00;;;;;;;12.59;55.47;97503.34;6980203;28;20265;-81
2024/01/05 19:29:41;;;;;;;11.27;6.97;;;;;;;12.42;55.59;97507.94;6960011;28;20201;-81
2024/01/05 19:33:03;;;;;;;9.03;6.17;;;;;;;12.11;56.55;97516.66;6977857;28;20344;-81
2024/01/05 19:36:24;;;;;;;9.60;6.10;;;;;;;11.96;57.11;97509.13;6973590;28;20222;-82
2024/01/05 19:39:46;;;;;;;9.27;6.20;;;;;;;11.91;57.60;97525.25;6970585;28;20684;-82
2024/01/05 19:43:10;;;;;;;8.67;6.20;;;;;;;12.25;56.76;97532.28;6964711;28;20203;-81
2024/01/05 19:46:31;;;;;;;10.37;8.33;;;;;;;12.17;56.85;97529.97;6968309;28;20237;-82
2024/01/05 19:49:53;;;;;;;12.30;7.40;;;;;;;11.24;58.38;97488.38;6969092;28;20335;-81
2024/01/05 19:53:14;;;;;;;23.83;15.50;;;;;;;12.13;57.03;97536.13;6976114;28;20221;-81
2024/01/05 19:56:36;;;;;;;16.53;11.03;;;;;;;12.12;57.49;97537.19;6978409;28;20245;-81
2024/01/05 19:59:59;;;;;;;11.63;8.37;;;;;;;11.97;57.83;97539.63;6973967;28;20256;-81
2024/01/05 20:03:20;;;;;;;11.63;8.73;;;;;;;12.39;57.18;97540.91;6964150;28;20283;-82
2024/01/05 20:06:42;;;;;;;12.07;8.87;;;;;;;12.61;56.01;97529.06;6970693;28;20319;-83